Sioux Lookout, Canada
Current Conditions -  °F | °C
As of 5:00 AM on Thursday 23 Oct 2014 (Local Time) from CYXL Reporting Station
Light Rain Light Rain  
Wind Chill: 45°   Ceiling: 1900
Heat Index: 48°   Visibility: 12mi
Dew Point: 41°   Wind: 8mph
Humidity: 76%   Direction: 170°S
Pressure: 29.87"   Gusts: NA
Location:  50.1°N, 91.92°W
Report Text: CYXL 231000Z 17007KT 12SM -RA BKN019 BKN055 OVC070 09/05 A2987 RMK SF5SC2AC1 SLP124
Loading
Personal Weather Stations






























Interactive Weather Map
Tropical Storm Tracking
New forecast layout! Learn more

10-Day Weather Forecast

Advertisements
Track Severe Weather on mobile